sensor_id;sensor_type;location;lat;lon;timestamp;pressure;altitude;pressure_sealevel;temperature;humidity
76052;BME280;64751;48.708;9.710;2022-12-07T00:00:55;97636.06;;;2.83;87.36
76052;BME280;64751;48.708;9.710;2022-12-07T00:03:22;97637.66;;;2.84;87.12
76052;BME280;64751;48.708;9.710;2022-12-07T00:05:50;97634.25;;;2.84;86.17
76052;BME280;64751;48.708;9.710;2022-12-07T00:08:17;97625.63;;;2.83;86.73
76052;BME280;64751;48.708;9.710;2022-12-07T00:10:45;97633.22;;;2.85;86.69
76052;BME280;64751;48.708;9.710;2022-12-07T00:13:13;97635.81;;;2.85;86.23
76052;BME280;64751;48.708;9.710;2022-12-07T00:15:42;97630.59;;;2.85;86.66
76052;BME280;64751;48.708;9.710;2022-12-07T00:18:10;97637.66;;;2.84;86.78
76052;BME280;64751;48.708;9.710;2022-12-07T00:20:37;97648.09;;;2.84;86.82
76052;BME280;64751;48.708;9.710;2022-12-07T00:23:05;97633.44;;;2.83;87.31
76052;BME280;64751;48.708;9.710;2022-12-07T00:25:32;97641.28;;;2.83;87.57
76052;BME280;64751;48.708;9.710;2022-12-07T00:28:00;97637.06;;;2.82;87.74
76052;BME280;64751;48.708;9.710;2022-12-07T00:30:27;97628.91;;;2.79;87.66
76052;BME280;64751;48.708;9.710;2022-12-07T00:32:56;97632.88;;;2.81;86.78
76052;BME280;64751;48.708;9.710;2022-12-07T00:35:23;97632.88;;;2.81;87.35
76052;BME280;64751;48.708;9.710;2022-12-07T00:37:51;97625.28;;;2.80;86.84
76052;BME280;64751;48.708;9.710;2022-12-07T00:40:19;97632.06;;;2.81;87.22
76052;BME280;64751;48.708;9.710;2022-12-07T00:42:46;97626.28;;;2.79;87.50
76052;BME280;64751;48.708;9.710;2022-12-07T00:45:14;97633.13;;;2.80;87.31
76052;BME280;64751;48.708;9.710;2022-12-07T00:47:41;97632.31;;;2.79;87.94
76052;BME280;64751;48.708;9.710;2022-12-07T00:50:10;97633.31;;;2.78;87.29
76052;BME280;64751;48.708;9.710;2022-12-07T00:52:38;97634.91;;;2.79;87.20
76052;BME280;64751;48.708;9.710;2022-12-07T00:55:06;97622.78;;;2.73;87.28
76052;BME280;64751;48.708;9.710;2022-12-07T00:57:33;97625.97;;;2.75;87.15
76052;BME280;64751;48.708;9.710;2022-12-07T01:00:01;97625.41;;;2.73;87.94
76052;BME280;64751;48.708;9.710;2022-12-07T01:02:28;97620.75;;;2.75;87.07
76052;BME280;64751;48.708;9.710;2022-12-07T01:04:56;97625.97;;;2.75;87.74
76052;BME280;64751;48.708;9.710;2022-12-07T01:07:25;97625.97;;;2.75;86.76
76052;BME280;64751;48.708;9.710;2022-12-07T01:09:52;97625.97;;;2.75;86.77
76052;BME280;64751;48.708;9.710;2022-12-07T01:12:20;97621.19;;;2.72;87.72
76052;BME280;64751;48.708;9.710;2022-12-07T01:14:47;97622.19;;;2.71;87.47
76052;BME280;64751;48.708;9.710;2022-12-07T01:17:15;97619.59;;;2.71;87.92
76052;BME280;64751;48.708;9.710;2022-12-07T01:19:43;97619.59;;;2.71;87.25
76052;BME280;64751;48.708;9.710;2022-12-07T01:22:10;97628.00;;;2.73;87.09
76052;BME280;64751;48.708;9.710;2022-12-07T01:24:39;97619.16;;;2.74;87.06
76052;BME280;64751;48.708;9.710;2022-12-07T01:27:06;97600.53;;;2.59;87.21
76052;BME280;64751;48.708;9.710;2022-12-07T01:29:34;97625.59;;;2.72;87.98
76052;BME280;64751;48.708;9.710;2022-12-07T01:32:01;97630.81;;;2.72;87.17
76052;BME280;64751;48.708;9.710;2022-12-07T01:34:29;97630.00;;;2.71;88.27
76052;BME280;64751;48.708;9.710;2022-12-07T01:36:57;97631.28;;;2.69;88.45
76052;BME280;64751;48.708;9.710;2022-12-07T01:39:24;97631.28;;;2.69;87.75
76052;BME280;64751;48.708;9.710;2022-12-07T01:41:54;97636.25;;;2.70;87.21
76052;BME280;64751;48.708;9.710;2022-12-07T01:44:23;97634.47;;;2.71;88.38
76052;BME280;64751;48.708;9.710;2022-12-07T01:46:52;97632.63;;;2.71;87.80
76052;BME280;64751;48.708;9.710;2022-12-07T01:49:24;97637.63;;;2.73;88.15
76052;BME280;64751;48.708;9.710;2022-12-07T01:52:00;97630.81;;;2.72;88.31
76052;BME280;64751;48.708;9.710;2022-12-07T01:54:28;97635.03;;;2.73;87.72
76052;BME280;64751;48.708;9.710;2022-12-07T01:56:57;97632.19;;;2.74;87.48
76052;BME280;64751;48.708;9.710;2022-12-07T01:59:26;97640.00;;;2.74;88.29
76052;BME280;64751;48.708;9.710;2022-12-07T02:01:54;97631.19;;;2.75;87.92
76052;BME280;64751;48.708;9.710;2022-12-07T02:04:25;97639.00;;;2.75;87.87
76052;BME280;64751;48.708;9.710;2022-12-07T02:06:53;97631.94;;;2.76;87.72
76052;BME280;64751;48.708;9.710;2022-12-07T02:09:22;97631.19;;;2.75;86.49
76052;BME280;64751;48.708;9.710;2022-12-07T02:11:49;97640.00;;;2.74;85.96
76052;BME280;64751;48.708;9.710;2022-12-07T02:14:19;97638.44;;;2.73;86.50
76052;BME280;64751;48.708;9.710;2022-12-07T02:16:54;97629.69;;;2.68;86.69
76052;BME280;64751;48.708;9.710;2022-12-07T02:28:37;97634.09;;;2.67;86.11
76052;BME280;64751;48.708;9.710;2022-12-07T02:31:14;97643.72;;;2.67;86.36
76052;BME280;64751;48.708;9.710;2022-12-07T02:33:48;97636.13;;;2.65;85.34
76052;BME280;64751;48.708;9.710;2022-12-07T02:36:21;97628.53;;;2.64;85.53
76052;BME280;64751;48.708;9.710;2022-12-07T02:38:58;97631.34;;;2.62;86.53
76052;BME280;64751;48.708;9.710;2022-12-07T02:41:31;97633.97;;;2.62;85.77
76052;BME280;64751;48.708;9.710;2022-12-07T02:44:01;97636.00;;;2.60;86.34
76052;BME280;64751;48.708;9.710;2022-12-07T02:46:32;97633.38;;;2.60;85.38
76052;BME280;64751;48.708;9.710;2022-12-07T02:49:01;97630.22;;;2.58;85.53
76052;BME280;64751;48.708;9.710;2022-12-07T02:51:30;97627.41;;;2.60;86.08
76052;BME280;64751;48.708;9.710;2022-12-07T02:53:58;97632.38;;;2.61;85.81
76052;BME280;64751;48.708;9.710;2022-12-07T02:56:39;97620.59;;;2.59;85.45
76052;BME280;64751;48.708;9.710;2022-12-07T02:59:17;97622.63;;;2.57;85.31
76052;BME280;64751;48.708;9.710;2022-12-07T03:02:03;97622.84;;;2.55;86.38
76052;BME280;64751;48.708;9.710;2022-12-07T03:04:42;97623.06;;;2.54;85.52
76052;BME280;64751;48.708;9.710;2022-12-07T03:07:18;97620.69;;;2.52;85.50
76052;BME280;64751;48.708;9.710;2022-12-07T03:09:58;97611.28;;;2.51;85.64
76052;BME280;64751;48.708;9.710;2022-12-07T03:12:31;97624.31;;;2.51;86.49
76052;BME280;64751;48.708;9.710;2022-12-07T03:15:06;97619.31;;;2.50;85.71
76052;BME280;64751;48.708;9.710;2022-12-07T03:17:38;97617.50;;;2.50;85.81
76052;BME280;64751;48.708;9.710;2022-12-07T03:20:09;97607.88;;;2.51;85.71
76052;BME280;64751;48.708;9.710;2022-12-07T03:22:39;97614.69;;;2.52;86.11
76052;BME280;64751;48.708;9.710;2022-12-07T03:25:11;97611.50;;;2.50;85.84
76052;BME280;64751;48.708;9.710;2022-12-07T03:27:45;97604.78;;;2.42;85.73
76052;BME280;64751;48.708;9.710;2022-12-07T03:30:21;97619.19;;;2.45;86.19
76052;BME280;64751;48.708;9.710;2022-12-07T03:32:54;97615.81;;;2.44;86.73
76052;BME280;64751;48.708;9.710;2022-12-07T03:35:27;97617.38;;;2.45;85.71
76052;BME280;64751;48.708;9.710;2022-12-07T03:37:59;97617.63;;;2.44;85.85
76052;BME280;64751;48.708;9.710;2022-12-07T03:40:30;97614.44;;;2.42;86.46
76052;BME280;64751;48.708;9.710;2022-12-07T03:43:00;97618.84;;;2.41;85.96
76052;BME280;64751;48.708;9.710;2022-12-07T03:45:35;97617.25;;;2.40;86.68
76052;BME280;64751;48.708;9.710;2022-12-07T03:48:10;97604.97;;;2.29;86.63
76052;BME280;64751;48.708;9.710;2022-12-07T03:50:48;97624.50;;;2.38;85.98
76052;BME280;64751;48.708;9.710;2022-12-07T03:53:20;97614.97;;;2.32;86.57
76052;BME280;64751;48.708;9.710;2022-12-07T03:55:50;97617.13;;;2.35;86.23
76052;BME280;64751;48.708;9.710;2022-12-07T03:58:20;97622.34;;;2.35;85.81
76052;BME280;64751;48.708;9.710;2022-12-07T04:00:50;97619.75;;;2.35;86.46
76052;BME280;64751;48.708;9.710;2022-12-07T04:03:19;97618.16;;;2.34;86.04
76052;BME280;64751;48.708;9.710;2022-12-07T04:05:47;97615.78;;;2.33;85.89
76052;BME280;64751;48.708;9.710;2022-12-07T04:08:14;97617.56;;;2.32;86.50
76052;BME280;64751;48.708;9.710;2022-12-07T04:10:42;97618.56;;;2.31;85.76
76052;BME280;64751;48.708;9.710;2022-12-07T04:13:09;97614.41;;;2.30;86.17
76052;BME280;64751;48.708;9.710;2022-12-07T04:15:37;97611.78;;;2.30;85.95
76052;BME280;64751;48.708;9.710;2022-12-07T04:18:04;97611.00;;;2.30;86.33
76052;BME280;64751;48.708;9.710;2022-12-07T04:20:33;97608.38;;;2.30;86.44
76052;BME280;64751;48.708;9.710;2022-12-07T04:23:00;97610.19;;;2.29;85.97
76052;BME280;64751;48.708;9.710;2022-12-07T04:25:28;97604.88;;;2.24;86.33
76052;BME280;64751;48.708;9.710;2022-12-07T04:27:55;97612.09;;;2.22;86.80
76052;BME280;64751;48.708;9.710;2022-12-07T04:30:23;97607.09;;;2.20;87.07
76052;BME280;64751;48.708;9.710;2022-12-07T04:32:50;97601.09;;;2.20;86.95
76052;BME280;64751;48.708;9.710;2022-12-07T04:35:18;97610.75;;;2.19;86.20
76052;BME280;64751;48.708;9.710;2022-12-07T04:37:47;97602.94;;;2.19;86.71
76052;BME280;64751;48.708;9.710;2022-12-07T04:40:15;97609.94;;;2.19;86.18
76052;BME280;64751;48.708;9.710;2022-12-07T04:42:42;97603.13;;;2.18;86.27
76052;BME280;64751;48.708;9.710;2022-12-07T04:45:10;97604.72;;;2.19;86.42
76052;BME280;64751;48.708;9.710;2022-12-07T04:47:37;97595.78;;;2.15;86.96
76052;BME280;64751;48.708;9.710;2022-12-07T04:50:06;97600.75;;;2.16;86.51
76052;BME280;64751;48.708;9.710;2022-12-07T04:52:33;97592.38;;;2.14;86.84
76052;BME280;64751;48.708;9.710;2022-12-07T04:55:02;97592.56;;;2.13;86.61
76052;BME280;64751;48.708;9.710;2022-12-07T04:57:30;97595.63;;;2.10;86.78
76052;BME280;64751;48.708;9.710;2022-12-07T04:59:58;97589.06;;;2.07;85.98
76052;BME280;64751;48.708;9.710;2022-12-07T05:02:25;97583.84;;;2.07;86.10
76052;BME280;64751;48.708;9.710;2022-12-07T05:04:52;97588.25;;;2.07;87.19
76052;BME280;64751;48.708;9.710;2022-12-07T05:07:20;97585.88;;;2.05;86.12
76052;BME280;64751;48.708;9.710;2022-12-07T05:09:47;97589.50;;;2.04;86.53
76052;BME280;64751;48.708;9.710;2022-12-07T05:12:16;97588.13;;;2.02;86.65
76052;BME280;64751;48.708;9.710;2022-12-07T05:14:44;97584.75;;;2.01;86.48
76052;BME280;64751;48.708;9.710;2022-12-07T05:17:11;97581.91;;;2.03;86.40
76052;BME280;64751;48.708;9.710;2022-12-07T05:19:39;97574.66;;;2.05;87.09
76052;BME280;64751;48.708;9.710;2022-12-07T05:22:06;97570.81;;;2.07;86.72
76052;BME280;64751;48.708;9.710;2022-12-07T05:24:34;97573.00;;;2.10;86.97
76052;BME280;64751;48.708;9.710;2022-12-07T05:27:01;97563.34;;;2.11;86.87
76052;BME280;64751;48.708;9.710;2022-12-07T05:29:31;97569.13;;;2.13;87.23
76052;BME280;64751;48.708;9.710;2022-12-07T05:31:58;97567.13;;;2.15;87.22
76052;BME280;64751;48.708;9.710;2022-12-07T05:34:26;97570.72;;;2.14;86.62
76052;BME280;64751;48.708;9.710;2022-12-07T05:36:53;97569.13;;;2.13;86.63
76052;BME280;64751;48.708;9.710;2022-12-07T05:39:21;97571.72;;;2.13;86.85
76052;BME280;64751;48.708;9.710;2022-12-07T05:41:48;97568.34;;;2.12;86.47
76052;BME280;64751;48.708;9.710;2022-12-07T05:44:34;97571.72;;;2.13;86.35
76052;BME280;64751;48.708;9.710;2022-12-07T05:47:02;97567.56;;;2.12;86.40
76052;BME280;64751;48.708;9.710;2022-12-07T05:49:29;97579.22;;;2.09;87.27
76052;BME280;64751;48.708;9.710;2022-12-07T05:51:57;97588.25;;;2.07;87.36
76052;BME280;64751;48.708;9.710;2022-12-07T05:54:25;97590.28;;;2.05;87.29
76052;BME280;64751;48.708;9.710;2022-12-07T05:56:53;97583.50;;;2.04;86.82
76052;BME280;64751;48.708;9.710;2022-12-07T05:59:20;97573.66;;;2.06;86.95
76052;BME280;64751;48.708;9.710;2022-12-07T06:01:52;97569.03;;;2.08;86.25
76052;BME280;64751;48.708;9.710;2022-12-07T06:04:21;97569.81;;;2.08;86.50
76052;BME280;64751;48.708;9.710;2022-12-07T06:06:49;97573.78;;;2.11;86.44
76052;BME280;64751;48.708;9.710;2022-12-07T06:09:17;97572.78;;;2.12;86.52
76052;BME280;64751;48.708;9.710;2022-12-07T06:11:45;97581.59;;;2.11;85.70
76052;BME280;64751;48.708;9.710;2022-12-07T06:14:30;97585.22;;;2.10;85.37
76052;BME280;64751;48.708;9.710;2022-12-07T06:17:00;97576.25;;;2.06;85.23
76052;BME280;64751;48.708;9.710;2022-12-07T06:19:27;97580.91;;;2.04;84.83
76052;BME280;64751;48.708;9.710;2022-12-07T06:21:55;97586.53;;;2.01;84.86
76052;BME280;64751;48.708;9.710;2022-12-07T06:24:22;97583.78;;;1.96;85.71
76052;BME280;64751;48.708;9.710;2022-12-07T06:26:50;97587.28;;;1.90;85.34
76052;BME280;64751;48.708;9.710;2022-12-07T06:29:18;97587.06;;;1.91;86.00
76052;BME280;64751;48.708;9.710;2022-12-07T06:31:46;97595.53;;;1.87;85.54
76052;BME280;64751;48.708;9.710;2022-12-07T06:34:16;97592.78;;;1.82;84.87
76052;BME280;64751;48.708;9.710;2022-12-07T06:36:45;97593.66;;;1.76;84.72
76052;BME280;64751;48.708;9.710;2022-12-07T06:39:20;97598.31;;;1.74;85.69
76052;BME280;64751;48.708;9.710;2022-12-07T06:41:49;97591.50;;;1.73;86.00
76052;BME280;64751;48.708;9.710;2022-12-07T06:44:18;97601.91;;;1.73;85.80
76052;BME280;64751;48.708;9.710;2022-12-07T06:46:46;97596.13;;;1.71;85.33
76052;BME280;64751;48.708;9.710;2022-12-07T06:49:15;97600.31;;;1.72;85.67
76052;BME280;64751;48.708;9.710;2022-12-07T06:51:43;97597.94;;;1.70;85.94
76052;BME280;64751;48.708;9.710;2022-12-07T06:54:12;97599.75;;;1.70;86.11
76052;BME280;64751;48.708;9.710;2022-12-07T06:56:40;97601.78;;;1.68;86.15
76052;BME280;64751;48.708;9.710;2022-12-07T06:59:08;97603.00;;;1.65;85.60
76052;BME280;64751;48.708;9.710;2022-12-07T07:01:36;97604.81;;;1.65;85.93
76052;BME280;64751;48.708;9.710;2022-12-07T07:04:03;97612.63;;;1.65;86.50
76052;BME280;64751;48.708;9.710;2022-12-07T07:06:32;97616.25;;;1.64;86.48
76052;BME280;64751;48.708;9.710;2022-12-07T07:09:00;97612.63;;;1.65;86.58
76052;BME280;64751;48.708;9.710;2022-12-07T07:11:27;97617.81;;;1.65;86.45
76052;BME280;64751;48.708;9.710;2022-12-07T07:13:55;97619.19;;;1.67;86.33
76052;BME280;64751;48.708;9.710;2022-12-07T07:16:28;97624.63;;;1.66;86.60
76052;BME280;64751;48.708;9.710;2022-12-07T07:18:56;97620.00;;;1.68;85.56
76052;BME280;64751;48.708;9.710;2022-12-07T07:21:24;97620.66;;;1.63;86.83
76052;BME280;64751;48.708;9.710;2022-12-07T07:23:53;97615.38;;;1.70;86.79
76052;BME280;64751;48.708;9.710;2022-12-07T07:26:20;97623.97;;;1.70;85.97
76052;BME280;64751;48.708;9.710;2022-12-07T07:28:48;97625.31;;;1.73;86.86
76052;BME280;64751;48.708;9.710;2022-12-07T07:31:15;97631.91;;;1.75;86.62
76052;BME280;64751;48.708;9.710;2022-12-07T07:33:44;97636.13;;;1.76;86.24
76052;BME280;64751;48.708;9.710;2022-12-07T07:36:12;97630.69;;;1.78;86.30
76052;BME280;64751;48.708;9.710;2022-12-07T07:38:40;97619.44;;;1.66;86.36
76052;BME280;64751;48.708;9.710;2022-12-07T07:41:08;97640.25;;;1.84;86.20
76052;BME280;64751;48.708;9.710;2022-12-07T07:43:36;97631.97;;;1.87;86.52
76052;BME280;64751;48.708;9.710;2022-12-07T07:46:04;97638.56;;;1.89;86.07
76052;BME280;64751;48.708;9.710;2022-12-07T07:48:31;97644.91;;;1.93;85.99
76052;BME280;64751;48.708;9.710;2022-12-07T07:50:59;97646.06;;;1.97;86.31
76052;BME280;64751;48.708;9.710;2022-12-07T07:53:26;97642.22;;;2.00;86.88
76052;BME280;64751;48.708;9.710;2022-12-07T07:55:54;97631.97;;;2.05;86.06
76052;BME280;64751;48.708;9.710;2022-12-07T07:58:23;97642.53;;;2.10;86.24
76052;BME280;64751;48.708;9.710;2022-12-07T08:00:51;97647.06;;;2.14;86.06
76052;BME280;64751;48.708;9.710;2022-12-07T08:03:19;97645.25;;;2.15;86.45
76052;BME280;64751;48.708;9.710;2022-12-07T08:05:46;97651.38;;;2.20;85.23
76052;BME280;64751;48.708;9.710;2022-12-07T08:08:14;97645.94;;;2.22;85.69
76052;BME280;64751;48.708;9.710;2022-12-07T08:10:41;97653.09;;;2.27;85.21
76052;BME280;64751;48.708;9.710;2022-12-07T08:13:09;97651.66;;;2.31;85.13
76052;BME280;64751;48.708;9.710;2022-12-07T08:15:42;97653.25;;;2.32;84.68
76052;BME280;64751;48.708;9.710;2022-12-07T08:18:11;97651.00;;;2.35;85.54
76052;BME280;64751;48.708;9.710;2022-12-07T08:20:40;97665.38;;;2.38;84.04
76052;BME280;64751;48.708;9.710;2022-12-07T08:23:09;97655.56;;;2.40;85.49
76052;BME280;64751;48.708;9.710;2022-12-07T08:25:37;97661.09;;;2.43;84.84
76052;BME280;64751;48.708;9.710;2022-12-07T08:28:05;97651.81;;;2.47;84.43
76052;BME280;64751;48.708;9.710;2022-12-07T08:30:32;97653.19;;;2.50;84.39
76052;BME280;64751;48.708;9.710;2022-12-07T08:33:02;97652.97;;;2.51;84.87
76052;BME280;64751;48.708;9.710;2022-12-07T08:35:29;97656.50;;;2.57;83.77
76052;BME280;64751;48.708;9.710;2022-12-07T08:37:57;97657.88;;;2.59;82.86
76052;BME280;64751;48.708;9.710;2022-12-07T08:40:24;97655.84;;;2.61;83.22
76052;BME280;64751;48.708;9.710;2022-12-07T08:42:52;97659.03;;;2.63;82.86
76052;BME280;64751;48.708;9.710;2022-12-07T08:45:20;97660.63;;;2.64;82.22
76052;BME280;64751;48.708;9.710;2022-12-07T08:47:50;97654.16;;;2.67;81.65
76052;BME280;64751;48.708;9.710;2022-12-07T08:50:21;97660.97;;;2.68;81.78
76052;BME280;64751;48.708;9.710;2022-12-07T08:52:51;97657.69;;;2.72;81.62
76052;BME280;64751;48.708;9.710;2022-12-07T08:55:20;97661.66;;;2.75;81.13
76052;BME280;64751;48.708;9.710;2022-12-07T08:57:47;97662.22;;;2.77;81.93
76052;BME280;64751;48.708;9.710;2022-12-07T09:00:16;97660.19;;;2.79;81.90
76052;BME280;64751;48.708;9.710;2022-12-07T09:02:44;97652.13;;;2.80;81.36
76052;BME280;64751;48.708;9.710;2022-12-07T09:05:12;97654.31;;;2.83;81.38
76052;BME280;64751;48.708;9.710;2022-12-07T09:07:43;97649.53;;;2.80;81.45
76052;BME280;64751;48.708;9.710;2022-12-07T09:10:12;97651.81;;;2.88;81.68
76052;BME280;64751;48.708;9.710;2022-12-07T09:12:40;97654.78;;;2.92;80.71
76052;BME280;64751;48.708;9.710;2022-12-07T09:15:08;97643.91;;;2.95;82.11
76052;BME280;64751;48.708;9.710;2022-12-07T09:17:35;97651.63;;;3.02;81.30
76052;BME280;64751;48.708;9.710;2022-12-07T09:20:05;97646.28;;;3.08;82.06
76052;BME280;64751;48.708;9.710;2022-12-07T09:22:33;97652.63;;;3.12;81.45
76052;BME280;64751;48.708;9.710;2022-12-07T09:25:03;97651.16;;;3.16;81.23
76052;BME280;64751;48.708;9.710;2022-12-07T09:27:31;97653.78;;;3.16;79.89
76052;BME280;64751;48.708;9.710;2022-12-07T09:29:58;97656.19;;;3.18;81.19
76052;BME280;64751;48.708;9.710;2022-12-07T09:32:26;97652.66;;;3.24;80.98
76052;BME280;64751;48.708;9.710;2022-12-07T09:34:53;97653.00;;;3.27;80.56
76052;BME280;64751;48.708;9.710;2022-12-07T09:37:21;97660.13;;;3.32;80.59
76052;BME280;64751;48.708;9.710;2022-12-07T09:39:49;97646.06;;;3.33;80.75
76052;BME280;64751;48.708;9.710;2022-12-07T09:42:26;97655.03;;;3.37;79.33
76052;BME280;64751;48.708;9.710;2022-12-07T09:44:55;97649.38;;;3.40;80.33
76052;BME280;64751;48.708;9.710;2022-12-07T09:47:23;97650.50;;;3.44;79.78
76052;BME280;64751;48.708;9.710;2022-12-07T09:49:50;97642.09;;;3.42;78.79
76052;BME280;64751;48.708;9.710;2022-12-07T09:52:20;97646.19;;;3.49;79.22
76052;BME280;64751;48.708;9.710;2022-12-07T09:54:52;97633.13;;;3.49;78.45
76052;BME280;64751;48.708;9.710;2022-12-07T09:57:28;97636.63;;;3.55;78.33
76052;BME280;64751;48.708;9.710;2022-12-07T09:59:57;97633.34;;;3.59;78.33
76052;BME280;64751;48.708;9.710;2022-12-07T10:02:35;97621.88;;;3.60;78.14
76052;BME280;64751;48.708;9.710;2022-12-07T10:05:04;97621.53;;;3.68;78.27
76052;BME280;64751;48.708;9.710;2022-12-07T10:07:32;97624.94;;;3.69;78.25
76052;BME280;64751;48.708;9.710;2022-12-07T10:10:03;97625.50;;;3.71;77.35
76052;BME280;64751;48.708;9.710;2022-12-07T10:12:52;97625.81;;;3.75;77.07
76052;BME280;64751;48.708;9.710;2022-12-07T10:15:20;97619.13;;;3.79;78.31
76052;BME280;64751;48.708;9.710;2022-12-07T10:17:48;97618.44;;;3.83;77.80
76052;BME280;64751;48.708;9.710;2022-12-07T10:20:21;97608.00;;;3.83;77.15
76052;BME280;64751;48.708;9.710;2022-12-07T10:23:00;97610.59;;;3.83;76.29
76052;BME280;64751;48.708;9.710;2022-12-07T10:25:30;97615.91;;;3.88;76.29
76052;BME280;64751;48.708;9.710;2022-12-07T10:28:08;97612.03;;;3.91;76.73
76052;BME280;64751;48.708;9.710;2022-12-07T10:30:50;97613.41;;;3.93;76.73
76052;BME280;64751;48.708;9.710;2022-12-07T10:33:37;97608.03;;;4.00;76.98
76052;BME280;64751;48.708;9.710;2022-12-07T10:36:21;97609.16;;;4.04;76.99
76052;BME280;64751;48.708;9.710;2022-12-07T10:38:50;97605.28;;;4.06;76.97
76052;BME280;64751;48.708;9.710;2022-12-07T10:41:18;97601.09;;;4.05;74.28
76052;BME280;64751;48.708;9.710;2022-12-07T10:43:52;97599.34;;;4.11;75.71
76052;BME280;64751;48.708;9.710;2022-12-07T10:46:52;97598.44;;;4.17;75.15
76052;BME280;64751;48.708;9.710;2022-12-07T10:49:55;97589.66;;;4.23;75.42
76052;BME280;64751;48.708;9.710;2022-12-07T10:52:38;97585.78;;;4.25;74.77
76052;BME280;64751;48.708;9.710;2022-12-07T10:55:21;97584.53;;;4.28;75.58
76052;BME280;64751;48.708;9.710;2022-12-07T10:58:03;97578.59;;;4.32;75.44
76052;BME280;64751;48.708;9.710;2022-12-07T11:00:43;97580.16;;;4.33;74.22
76052;BME280;64751;48.708;9.710;2022-12-07T11:03:29;97577.56;;;4.33;74.08
76052;BME280;64751;48.708;9.710;2022-12-07T11:06:10;97574.94;;;4.33;74.43
76052;BME280;64751;48.708;9.710;2022-12-07T11:08:51;97573.13;;;4.34;74.03
76052;BME280;64751;48.708;9.710;2022-12-07T11:11:27;97575.75;;;4.34;72.99
76052;BME280;64751;48.708;9.710;2022-12-07T11:14:07;97570.09;;;4.25;73.83
76052;BME280;64751;48.708;9.710;2022-12-07T11:16:50;97571.81;;;4.20;73.81
76052;BME280;64751;48.708;9.710;2022-12-07T11:19:43;97571.59;;;4.21;74.33
76052;BME280;64751;48.708;9.710;2022-12-07T11:22:21;97564.53;;;4.22;73.76
76052;BME280;64751;48.708;9.710;2022-12-07T11:24:57;97555.44;;;4.24;74.22
76052;BME280;64751;48.708;9.710;2022-12-07T11:27:34;97553.94;;;4.28;73.57
76052;BME280;64751;48.708;9.710;2022-12-07T11:30:14;97549.66;;;4.22;73.15
76052;BME280;64751;48.708;9.710;2022-12-07T11:33:09;97542.94;;;4.26;73.75
76052;BME280;64751;48.708;9.710;2022-12-07T11:35:46;97533.34;;;4.15;72.89
76052;BME280;64751;48.708;9.710;2022-12-07T11:38:22;97546.91;;;4.29;73.90
76052;BME280;64751;48.708;9.710;2022-12-07T11:40:58;97548.72;;;4.28;73.41
76052;BME280;64751;48.708;9.710;2022-12-07T11:43:50;97546.66;;;4.30;73.86
76052;BME280;64751;48.708;9.710;2022-12-07T11:46:19;97537.94;;;4.25;74.11
76052;BME280;64751;48.708;9.710;2022-12-07T11:48:52;97539.50;;;4.26;73.28
76052;BME280;64751;48.708;9.710;2022-12-07T11:51:22;97538.50;;;4.27;74.02
76052;BME280;64751;48.708;9.710;2022-12-07T11:53:54;97532.47;;;4.26;74.74
76052;BME280;64751;48.708;9.710;2022-12-07T11:56:25;97527.94;;;4.22;72.86
76052;BME280;64751;48.708;9.710;2022-12-07T11:58:56;97523.53;;;4.22;73.80
76052;BME280;64751;48.708;9.710;2022-12-07T12:01:39;97529.31;;;4.24;74.48
76052;BME280;64751;48.708;9.710;2022-12-07T12:04:24;97518.59;;;4.26;73.66
76052;BME280;64751;48.708;9.710;2022-12-07T12:06:53;97521.81;;;4.28;74.42
76052;BME280;64751;48.708;9.710;2022-12-07T12:09:25;97517.50;;;4.22;73.47
76052;BME280;64751;48.708;9.710;2022-12-07T12:12:12;97516.72;;;4.21;74.95
76052;BME280;64751;48.708;9.710;2022-12-07T12:14:58;97509.91;;;4.20;75.09
76052;BME280;64751;48.708;9.710;2022-12-07T12:17:39;97516.25;;;4.24;75.16
76052;BME280;64751;48.708;9.710;2022-12-07T12:20:20;97508.41;;;4.24;74.46
76052;BME280;64751;48.708;9.710;2022-12-07T12:22:53;97504.78;;;4.25;74.58
76052;BME280;64751;48.708;9.710;2022-12-07T12:25:24;97508.16;;;4.26;74.27
76052;BME280;64751;48.708;9.710;2022-12-07T12:27:55;97503.16;;;4.24;74.17
76052;BME280;64751;48.708;9.710;2022-12-07T12:30:30;97502.63;;;4.22;74.55
76052;BME280;64751;48.708;9.710;2022-12-07T12:33:04;97503.56;;;4.16;75.29
76052;BME280;64751;48.708;9.710;2022-12-07T12:35:36;97481.38;;;4.02;74.65
76052;BME280;64751;48.708;9.710;2022-12-07T12:38:32;97499.06;;;4.12;74.85
76052;BME280;64751;48.708;9.710;2022-12-07T12:41:01;97496.44;;;4.12;75.35
76052;BME280;64751;48.708;9.710;2022-12-07T12:43:56;97496.19;;;4.13;75.04
76052;BME280;64751;48.708;9.710;2022-12-07T12:46:38;97490.41;;;4.11;74.08
76052;BME280;64751;48.708;9.710;2022-12-07T12:49:42;97488.44;;;4.18;74.62
76052;BME280;64751;48.708;9.710;2022-12-07T12:58:41;97492.16;;;4.22;75.47
76052;BME280;64751;48.708;9.710;2022-12-07T13:04:34;97487.81;;;4.11;74.62
76052;BME280;64751;48.708;9.710;2022-12-07T13:07:06;97481.69;;;4.06;73.33
76052;BME280;64751;48.708;9.710;2022-12-07T13:09:36;97475.34;;;4.02;74.39
76052;BME280;64751;48.708;9.710;2022-12-07T13:12:14;97467.34;;;3.92;74.30
76052;BME280;64751;48.708;9.710;2022-12-07T13:14:55;97465.75;;;3.91;75.89
76052;BME280;64751;48.708;9.710;2022-12-07T13:17:58;97467.66;;;3.95;76.71
76052;BME280;64751;48.708;9.710;2022-12-07T13:20:49;97465.84;;;3.96;75.94
76052;BME280;64751;48.708;9.710;2022-12-07T13:23:33;97466.66;;;3.96;76.42
76052;BME280;64751;48.708;9.710;2022-12-07T13:26:17;97452.00;;;3.95;75.96
76052;BME280;64751;48.708;9.710;2022-12-07T13:28:48;97454.59;;;3.95;76.13
76052;BME280;64751;48.708;9.710;2022-12-07T13:31:30;97452.25;;;3.94;76.32
76052;BME280;64751;48.708;9.710;2022-12-07T13:34:00;97460.53;;;3.91;75.91
76052;BME280;64751;48.708;9.710;2022-12-07T13:36:31;97453.41;;;3.86;76.17
76052;BME280;64751;48.708;9.710;2022-12-07T13:39:11;97462.28;;;3.85;75.81
76052;BME280;64751;48.708;9.710;2022-12-07T13:41:44;97442.25;;;3.74;76.24
76052;BME280;64751;48.708;9.710;2022-12-07T13:44:14;97449.13;;;3.80;77.49
76052;BME280;64751;48.708;9.710;2022-12-07T13:46:49;97455.38;;;3.79;77.05
76052;BME280;64751;48.708;9.710;2022-12-07T13:49:21;97459.03;;;3.78;76.46
76052;BME280;64751;48.708;9.710;2022-12-07T13:51:50;97458.22;;;3.78;77.03